Time;durP1;ratioP1;P1;durP2;ratioP2;P2;SDS_P1;SDS_P2;PMS_P1;PMS_P2;Temp;Humidity;BMP_temperature;BMP_pressure;BME280_temperature;BME280_humidity;BME280_pressure;Samples;Min_cycle;Max_cycle;Signal;HPM_P1;HPM_P2
2022/06/04 00:01:49;;;;;;;7.30;4.80;;;;;;;20.48;100.00;100446.19;4486230;31;20084;-63
2022/06/04 00:04:17;;;;;;;17.98;4.82;;;;;;;20.51;100.00;100441.59;4486231;31;20080;-63
2022/06/04 00:06:44;;;;;;;6.25;4.60;;;;;;;20.51;99.48;100436.22;4486224;31;20118;-62
2022/06/04 00:09:15;;;;;;;7.95;4.65;;;;;;;20.52;100.00;100437.09;4486144;31;20127;-62
2022/06/04 00:17:19;;;;;;;5.68;4.57;;;;;;;20.45;100.00;100406.22;4486127;31;20126;-62
2022/06/04 00:19:46;;;;;;;6.47;4.70;;;;;;;20.40;100.00;100392.22;4471294;31;20499;-63
2022/06/04 00:22:14;;;;;;;7.37;5.87;;;;;;;20.35;100.00;100387.09;4486256;31;20126;-63
2022/06/04 00:24:43;;;;;;;5.85;5.22;;;;;;;20.21;100.00;100392.28;4485851;31;20113;-62
2022/06/04 00:27:14;;;;;;;7.85;5.47;;;;;;;20.13;100.00;100403.37;4485998;31;20444;-63
2022/06/04 00:29:42;;;;;;;9.90;6.43;;;;;;;20.07;100.00;100411.75;4486173;31;20111;-63
2022/06/04 00:32:10;;;;;;;12.80;6.18;;;;;;;19.97;100.00;100421.19;4486022;31;20126;-63
2022/06/04 00:34:37;;;;;;;5.32;4.85;;;;;;;20.12;100.00;100416.84;4485832;31;20076;-63
2022/06/04 00:37:04;;;;;;;6.32;5.57;;;;;;;20.18;100.00;100417.41;4486069;31;20107;-63
2022/06/04 00:39:31;;;;;;;8.85;6.65;;;;;;;20.27;100.00;100424.09;4485991;31;20615;-63
2022/06/04 00:42:08;;;;;;;8.75;4.97;;;;;;;20.05;100.00;100422.50;4486223;31;20214;-62
2022/06/04 00:45:12;;;;;;;5.07;4.65;;;;;;;20.16;100.00;100410.41;4486015;31;20166;-62
2022/06/04 00:47:41;;;;;;;7.05;5.20;;;;;;;20.29;100.00;100403.47;4486006;31;20405;-62
2022/06/04 00:50:09;;;;;;;9.13;5.55;;;;;;;20.33;100.00;100396.16;4485964;31;20096;-62
2022/06/04 00:52:37;;;;;;;11.88;6.00;;;;;;;20.26;100.00;100387.59;4485871;31;20092;-62
2022/06/04 00:55:06;;;;;;;7.90;5.90;;;;;;;20.22;100.00;100381.53;4485866;31;20068;-62
2022/06/04 00:58:04;;;;;;;5.90;5.30;;;;;;;20.25;100.00;100377.84;4485806;31;20096;-62
2022/06/04 01:01:08;;;;;;;8.95;5.35;;;;;;;20.27;100.00;100368.75;4485902;31;20152;-62
2022/06/04 01:03:42;;;;;;;7.70;6.30;;;;;;;20.29;100.00;100353.50;4485795;31;20160;-62
2022/06/04 01:06:27;;;;;;;9.10;5.05;;;;;;;20.12;100.00;100350.84;4486071;31;20527;-62
2022/06/04 01:09:42;;;;;;;8.85;6.65;;;;;;;20.20;100.00;100345.09;4485216;31;20083;-62
2022/06/04 01:12:25;;;;;;;6.87;6.28;;;;;;;20.17;100.00;100324.69;4428356;31;20144;-62
2022/06/04 01:15:14;;;;;;;7.90;6.20;;;;;;;20.06;100.00;100322.59;4485776;31;20112;-62
2022/06/04 01:18:13;;;;;;;7.05;6.35;;;;;;;20.11;100.00;100325.03;4485962;31;20372;-62
2022/06/04 01:21:02;;;;;;;8.77;6.28;;;;;;;20.15;100.00;100325.75;4485805;31;20088;-63
2022/06/04 01:23:56;;;;;;;9.48;6.82;;;;;;;19.99;100.00;100337.22;4471089;31;20104;-63
2022/06/04 01:27:01;;;;;;;8.02;6.45;;;;;;;19.94;100.00;100341.97;4455510;31;20578;-62
2022/06/04 01:29:48;;;;;;;9.50;6.70;;;;;;;19.98;100.00;100337.31;4485785;31;20345;-62
2022/06/04 01:32:35;;;;;;;8.32;6.20;;;;;;;20.01;100.00;100338.03;4470678;31;20087;-63
2022/06/04 01:35:05;;;;;;;;;;;;;;;19.95;100.00;100341.00;4486027;31;20112;-62
2022/06/04 01:37:53;;;;;;;9.10;6.70;;;;;;;20.03;100.00;100338.78;4485598;31;20043;-62
2022/06/04 01:43:17;;;;;;;7.00;6.30;;;;;;;20.17;100.00;100331.87;4485513;31;20088;-62
2022/06/04 01:45:46;;;;;;;9.75;7.25;;;;;;;20.13;100.00;100339.19;4485362;31;20088;-62
2022/06/04 01:48:15;;;;;;;10.05;5.68;;;;;;;20.08;100.00;100348.41;4485359;31;20174;-63
2022/06/04 01:50:53;;;;;;;6.70;5.65;;;;;;;20.10;100.00;100362.56;4485722;31;20092;-62
2022/06/04 01:53:25;;;;;;;10.23;6.70;;;;;;;20.22;100.00;100361.94;4485408;31;20368;-63
2022/06/04 01:56:07;;;;;;;8.98;7.18;;;;;;;20.24;100.00;100362.69;4485160;31;20537;-62
2022/06/04 01:58:46;;;;;;;9.35;5.78;;;;;;;20.06;100.00;100368.06;4485523;31;20136;-62
2022/06/04 02:01:18;;;;;;;8.07;5.70;;;;;;;20.02;100.00;100357.59;4485221;31;20448;-62
2022/06/04 02:03:59;;;;;;;7.22;6.50;;;;;;;20.06;100.00;100349.34;4485246;31;20376;-62
2022/06/04 02:06:33;;;;;;;10.05;7.00;;;;;;;19.93;100.00;100361.63;4485121;31;20088;-62
2022/06/04 02:09:20;;;;;;;9.25;7.07;;;;;;;19.84;100.00;100366.56;4485110;31;20157;-62
2022/06/04 02:11:53;;;;;;;7.00;6.40;;;;;;;19.74;100.00;100367.03;4485336;31;20140;-62
2022/06/04 02:14:20;;;;;;;7.72;6.75;;;;;;;19.85;100.00;100347.75;4485154;31;20571;-62
2022/06/04 02:16:56;;;;;;;8.63;7.45;;;;;;;19.90;100.00;100356.44;4484971;31;20096;-62
2022/06/04 02:19:23;;;;;;;8.77;6.62;;;;;;;19.86;100.00;100367.34;4484991;31;20508;-62
2022/06/04 02:21:51;;;;;;;8.57;6.43;;;;;;;19.92;100.00;100351.00;4486922;31;20156;-62
2022/06/04 02:24:18;;;;;;;11.93;6.55;;;;;;;20.04;100.00;100345.91;4486943;31;20084;-62
2022/06/04 02:26:46;;;;;;;8.95;7.90;;;;;;;20.10;100.00;100335.81;4486927;31;20122;-63
2022/06/04 02:29:15;;;;;;;9.48;7.60;;;;;;;20.10;100.00;100341.16;4486899;31;20126;-62
2022/06/04 02:31:49;;;;;;;8.40;7.57;;;;;;;20.05;100.00;100326.22;4486928;31;20160;-62
2022/06/04 02:34:39;;;;;;;11.52;8.88;;;;;;;20.01;100.00;100329.13;4486876;31;20088;-62
2022/06/04 02:37:30;;;;;;;10.05;7.93;;;;;;;19.99;100.00;100329.19;4486913;31;20076;-62
2022/06/04 02:40:08;;;;;;;9.90;8.00;;;;;;;20.04;100.00;100339.69;4486851;31;20616;-62
2022/06/04 02:43:14;;;;;;;9.73;7.53;;;;;;;20.09;100.00;100332.28;4486772;31;20114;-63
2022/06/04 02:45:58;;;;;;;11.82;8.82;;;;;;;20.13;100.00;100319.59;4486789;31;20427;-63
2022/06/04 02:48:32;;;;;;;9.55;7.57;;;;;;;19.97;100.00;100328.44;4486772;31;20122;-62
2022/06/04 02:51:13;;;;;;;14.77;7.55;;;;;;;20.00;100.00;100325.59;4486860;31;20170;-62
2022/06/04 02:53:41;;;;;;;17.62;9.25;;;;;;;20.25;100.00;100325.19;4486703;31;20080;-62
2022/06/04 02:56:14;;;;;;;9.57;7.62;;;;;;;19.99;100.00;100315.81;4486647;31;20161;-62
2022/06/04 02:58:43;;;;;;;12.73;8.88;;;;;;;19.90;100.00;100324.34;4486650;31;20111;-62
2022/06/04 03:01:11;;;;;;;10.38;8.80;;;;;;;19.90;100.00;100316.31;4486636;31;20479;-63
2022/06/04 03:03:40;;;;;;;10.10;7.75;;;;;;;19.86;100.00;100327.22;4486742;31;20102;-63
2022/06/04 03:06:19;;;;;;;13.80;8.15;;;;;;;19.90;100.00;100316.31;4486583;31;20459;-62
2022/06/04 03:08:47;;;;;;;13.48;8.60;;;;;;;19.91;100.00;100322.53;4486675;31;20472;-62
2022/06/04 03:11:14;;;;;;;10.40;7.72;;;;;;;19.85;100.00;100322.84;4486544;31;20096;-63
2022/06/04 03:13:41;;;;;;;13.27;8.65;;;;;;;19.84;100.00;100329.13;4486523;31;20096;-63
2022/06/04 03:16:09;;;;;;;9.63;8.13;;;;;;;19.84;100.00;100324.66;4486457;31;20112;-62
2022/06/04 03:18:36;;;;;;;11.90;9.23;;;;;;;19.90;100.00;100327.03;4486810;31;20167;-62
2022/06/04 03:21:04;;;;;;;11.68;9.65;;;;;;;19.96;100.00;100331.16;4486483;31;20549;-62
2022/06/04 03:23:32;;;;;;;13.07;8.85;;;;;;;20.01;100.00;100335.34;4486102;31;20594;-62
2022/06/04 03:25:59;;;;;;;14.45;10.18;;;;;;;20.03;100.00;100336.13;4485787;31;20080;-63
2022/06/04 03:28:27;;;;;;;12.98;9.60;;;;;;;19.99;100.00;100334.56;4485583;31;20104;-62
2022/06/04 03:30:54;;;;;;;13.80;10.77;;;;;;;19.95;100.00;100329.44;4485293;31;20669;-63
2022/06/04 03:33:21;;;;;;;20.37;12.65;;;;;;;19.94;100.00;100322.37;4485536;31;20135;-62
2022/06/04 03:35:49;;;;;;;18.83;12.57;;;;;;;19.89;100.00;100332.44;4485434;31;20092;-62
2022/06/04 03:38:16;;;;;;;15.75;12.55;;;;;;;19.91;100.00;100334.09;4485576;31;20084;-62
2022/06/04 03:40:43;;;;;;;23.35;13.65;;;;;;;19.90;100.00;100337.72;4485458;31;20167;-62
2022/06/04 03:43:10;;;;;;;17.95;14.25;;;;;;;19.91;100.00;100334.09;4485601;31;20114;-62
2022/06/04 03:45:38;;;;;;;19.67;13.98;;;;;;;19.88;100.00;100334.25;4485555;31;20088;-62
2022/06/04 03:48:05;;;;;;;18.02;12.35;;;;;;;19.90;100.00;100326.16;4485297;31;20084;-63
2022/06/04 03:50:32;;;;;;;21.20;12.88;;;;;;;19.92;100.00;100335.81;4485329;31;20138;-62
2022/06/04 03:53:00;;;;;;;21.42;12.10;;;;;;;19.88;100.00;100330.72;4485462;31;20108;-62
2022/06/04 03:55:27;;;;;;;16.73;10.95;;;;;;;19.82;100.00;100326.53;4470699;31;20490;-62
2022/06/04 03:57:54;;;;;;;16.15;9.65;;;;;;;19.77;100.00;100316.06;4470629;31;20108;-62
2022/06/04 04:00:22;;;;;;;17.83;9.75;;;;;;;19.75;100.00;100314.41;4485385;31;20517;-62
2022/06/04 04:02:58;;;;;;;15.15;10.40;;;;;;;19.76;100.00;100324.19;4485403;31;20487;-62
2022/06/04 04:05:29;;;;;;;17.27;8.18;;;;;;;19.77;100.00;100329.44;4485379;31;20092;-62
2022/06/04 04:07:56;;;;;;;13.70;8.20;;;;;;;19.78;100.00;100332.97;4485451;31;20584;-63
2022/06/04 04:10:26;;;;;;;15.30;10.00;;;;;;;19.81;100.00;100322.13;4485340;31;20149;-62
2022/06/04 04:12:53;;;;;;;19.85;9.57;;;;;;;19.76;100.00;100313.50;4485232;31;20404;-62
2022/06/04 04:15:21;;;;;;;11.25;7.65;;;;;;;19.78;100.00;100295.53;4485238;31;20171;-62
2022/06/04 04:17:48;;;;;;;18.02;8.50;;;;;;;19.78;100.00;100304.44;4485417;31;20119;-62
2022/06/04 04:20:25;;;;;;;10.60;7.25;;;;;;;19.64;100.00;100308.75;4485369;31;20092;-63
2022/06/04 04:22:54;;;;;;;14.65;7.85;;;;;;;19.64;100.00;100314.09;4485403;31;20079;-63
2022/06/04 04:25:24;;;;;;;13.40;6.82;;;;;;;19.56;100.00;100304.63;4483503;31;78342;-62
2022/06/04 04:27:52;;;;;;;12.05;6.93;;;;;;;19.56;100.00;100304.63;4486169;31;20123;-62
2022/06/04 04:30:22;;;;;;;15.10;8.02;;;;;;;19.49;100.00;100323.72;4486237;31;20179;-62
2022/06/04 04:32:51;;;;;;;16.83;10.70;;;;;;;19.58;100.00;100390.97;4486171;31;20091;-62
2022/06/04 04:35:24;;;;;;;18.60;11.00;;;;;;;19.39;100.00;100464.91;4486258;31;20126;-62
2022/06/04 04:37:52;;;;;;;19.37;10.95;;;;;;;19.19;100.00;100483.72;4485979;31;20160;-62
2022/06/04 04:40:21;;;;;;;16.65;10.27;;;;;;;18.91;100.00;100458.25;4486272;31;20162;-62
2022/06/04 04:42:49;;;;;;;20.45;11.30;;;;;;;18.67;100.00;100445.97;4485324;31;20092;-62
2022/06/04 04:45:18;;;;;;;24.60;11.05;;;;;;;18.54;100.00;100433.16;4486111;31;20164;-62
2022/06/04 04:47:47;;;;;;;23.80;12.70;;;;;;;18.63;100.00;100411.41;4486249;31;20446;-62
2022/06/04 04:50:18;;;;;;;23.08;10.85;;;;;;;18.68;100.00;100408.53;4486166;31;20104;-63
2022/06/04 04:52:46;;;;;;;18.80;10.82;;;;;;;18.72;100.00;100407.47;4486101;31;20068;-62
2022/06/04 04:55:14;;;;;;;20.40;8.48;;;;;;;18.69;100.00;100412.06;4485987;31;20444;-63
2022/06/04 04:57:41;;;;;;;13.35;6.62;;;;;;;18.70;100.00;100401.31;4486153;31;21239;-62
2022/06/04 05:00:10;;;;;;;21.73;7.18;;;;;;;18.64;100.00;100391.78;4486044;31;20511;-63
2022/06/04 05:02:37;;;;;;;14.32;7.85;;;;;;;18.61;100.00;100386.56;4485992;31;20159;-62
2022/06/04 05:05:05;;;;;;;12.35;7.28;;;;;;;18.60;100.00;100379.50;4485966;31;20146;-62
2022/06/04 05:07:33;;;;;;;15.07;7.03;;;;;;;18.70;100.00;100385.31;4485933;31;20139;-63
2022/06/04 05:10:00;;;;;;;18.65;8.38;;;;;;;18.80;100.00;100391.12;4486165;31;20108;-62
2022/06/04 05:12:28;;;;;;;12.73;8.02;;;;;;;18.86;100.00;100406.84;4485875;31;20080;-62
2022/06/04 05:14:56;;;;;;;15.23;7.50;;;;;;;18.73;100.00;100405.66;4485834;31;20168;-62
2022/06/04 05:17:23;;;;;;;11.68;6.60;;;;;;;18.82;100.00;100406.13;4485663;31;20546;-62
2022/06/04 05:19:52;;;;;;;10.15;6.70;;;;;;;18.83;100.00;100396.31;4471402;31;20115;-62
2022/06/04 05:22:20;;;;;;;15.13;7.57;;;;;;;19.01;100.00;100379.47;4485832;31;20131;-62
2022/06/04 05:24:47;;;;;;;14.13;6.28;;;;;;;18.97;100.00;100372.50;4485661;31;20088;-62
2022/06/04 05:27:14;;;;;;;17.83;6.75;;;;;;;19.06;100.00;100377.44;4471357;31;20096;-63
2022/06/04 05:29:41;;;;;;;14.57;6.00;;;;;;;19.15;100.00;100377.91;4485673;31;20122;-62
2022/06/04 05:32:09;;;;;;;9.98;5.65;;;;;;;19.13;100.00;100394.03;4485664;31;20075;-62
2022/06/04 05:34:37;;;;;;;9.50;5.00;;;;;;;19.24;100.00;100402.41;4485739;31;20160;-62
2022/06/04 05:37:05;;;;;;;6.37;4.85;;;;;;;19.34;100.00;100393.00;4485829;31;20412;-62
2022/06/04 05:39:32;;;;;;;11.20;4.50;;;;;;;19.53;100.00;100389.44;4485547;31;20100;-62
2022/06/04 05:42:00;;;;;;;9.25;4.95;;;;;;;19.44;100.00;100397.91;4485429;31;20550;-62
2022/06/04 05:44:28;;;;;;;5.85;4.28;;;;;;;19.54;100.00;100389.37;4485464;31;20541;-62
2022/06/04 05:46:55;;;;;;;14.20;4.82;;;;;;;19.78;100.00;100371.28;4485429;31;20084;-63
2022/06/04 05:49:23;;;;;;;12.23;4.75;;;;;;;19.99;100.00;100373.81;4485487;31;20112;-62
2022/06/04 05:51:51;;;;;;;12.00;5.05;;;;;;;19.95;100.00;100382.94;4485258;31;20482;-63
2022/06/04 05:54:20;;;;;;;9.35;4.30;;;;;;;20.10;100.00;100391.97;4485134;31;20384;-62
2022/06/04 05:56:48;;;;;;;10.85;4.12;;;;;;;20.03;100.00;100396.78;4485195;31;20089;-62
2022/06/04 05:59:18;;;;;;;8.57;4.30;;;;;;;20.05;100.00;100390.41;4485505;31;20506;-62
2022/06/04 06:01:47;;;;;;;12.00;4.57;;;;;;;19.95;100.00;100398.97;4485214;31;20509;-62
2022/06/04 06:04:16;;;;;;;8.55;3.25;;;;;;;19.76;100.00;100409.75;4485199;31;20190;-62
2022/06/04 06:06:47;;;;;;;7.12;3.33;;;;;;;19.61;100.00;100405.09;4485115;31;20463;-62
2022/06/04 06:09:17;;;;;;;5.93;3.53;;;;;;;19.58;100.00;100412.34;4470598;31;20563;-62
2022/06/04 06:11:45;;;;;;;6.72;3.90;;;;;;;19.62;100.00;100406.84;4485055;31;20106;-62
2022/06/04 06:14:12;;;;;;;8.98;4.05;;;;;;;19.56;100.00;100398.16;4485076;31;20089;-62
2022/06/04 06:16:43;;;;;;;6.35;3.47;;;;;;;19.53;100.00;100397.47;4485098;31;20089;-62
2022/06/04 06:19:12;;;;;;;11.20;3.70;;;;;;;19.55;100.00;100393.78;4485158;31;20532;-62
2022/06/04 06:21:41;;;;;;;9.20;4.03;;;;;;;19.61;100.00;100389.94;4485028;31;20092;-62
2022/06/04 06:24:10;;;;;;;7.95;4.40;;;;;;;19.67;100.00;100388.78;4484720;31;20088;-62
2022/06/04 06:26:49;;;;;;;9.07;4.00;;;;;;;19.89;100.00;100384.09;4484854;31;20376;-62
2022/06/04 06:29:17;;;;;;;11.93;4.20;;;;;;;20.10;100.00;100383.97;4484881;31;20139;-62
2022/06/04 06:31:45;;;;;;;5.93;3.85;;;;;;;20.32;100.00;100384.59;4484811;31;20409;-62
2022/06/04 06:34:13;;;;;;;14.15;4.25;;;;;;;20.68;100.00;100384.47;4484769;31;20107;-63
2022/06/04 06:36:40;;;;;;;10.93;4.43;;;;;;;20.76;100.00;100384.06;4484701;31;20108;-62
2022/06/04 06:39:08;;;;;;;10.15;3.78;;;;;;;20.42;100.00;100385.81;4484683;31;20108;-62
2022/06/04 06:41:36;;;;;;;14.32;3.97;;;;;;;20.59;100.00;100384.09;4484550;31;20088;-62
2022/06/04 06:44:04;;;;;;;9.13;3.80;;;;;;;20.41;100.00;100380.56;4484642;31;20531;-62
2022/06/04 06:46:41;;;;;;;9.23;3.92;;;;;;;20.56;100.00;100390.47;4484513;31;20179;-62
2022/06/04 06:49:20;;;;;;;6.55;3.40;;;;;;;20.29;100.00;100388.28;4484658;31;20175;-62
2022/06/04 06:51:54;;;;;;;5.75;3.47;;;;;;;20.17;100.00;100375.53;4484506;31;20444;-62
2022/06/04 06:54:24;;;;;;;9.25;3.75;;;;;;;20.29;100.00;100368.69;4484568;31;20088;-62
2022/06/04 06:56:52;;;;;;;5.25;3.28;;;;;;;20.34;100.00;100374.66;4484562;31;20120;-62
2022/06/04 06:59:20;;;;;;;8.27;3.85;;;;;;;20.24;100.00;100366.25;4484454;31;20103;-62
2022/06/04 07:01:49;;;;;;;7.50;3.80;;;;;;;20.14;100.00;100369.47;4484466;31;20111;-62
2022/06/04 07:04:18;;;;;;;5.93;3.85;;;;;;;20.10;100.00;100363.41;4484186;31;20469;-62
2022/06/04 07:06:51;;;;;;;6.80;4.10;;;;;;;20.21;100.00;100374.44;4485454;31;20100;-62
2022/06/04 07:09:22;;;;;;;5.35;3.47;;;;;;;20.16;100.00;100373.81;4486655;31;20137;-62
2022/06/04 07:11:50;;;;;;;4.37;3.20;;;;;;;20.18;100.00;100371.94;4486547;31;20447;-62
2022/06/04 07:14:18;;;;;;;5.40;4.62;;;;;;;20.29;100.00;100360.66;4486492;31;20504;-62
2022/06/04 07:16:46;;;;;;;12.07;3.92;;;;;;;20.26;100.00;100361.69;4486407;31;20868;-62
2022/06/04 07:19:15;;;;;;;8.18;3.42;;;;;;;20.47;100.00;100365.03;4486623;31;20118;-62
2022/06/04 07:21:43;;;;;;;9.38;3.90;;;;;;;20.61;100.00;100366.16;4486549;31;20080;-62
2022/06/04 07:24:11;;;;;;;11.00;3.78;;;;;;;20.69;100.00;100359.44;4486599;31;20135;-63
2022/06/04 07:26:40;;;;;;;6.70;3.12;;;;;;;20.83;100.00;100366.72;4486394;31;20539;-62
2022/06/04 07:29:09;;;;;;;6.18;4.47;;;;;;;20.97;100.00;100358.78;4486676;31;20092;-63
2022/06/04 07:31:37;;;;;;;4.82;3.55;;;;;;;20.81;100.00;100355.22;4486286;31;20103;-62
2022/06/04 07:34:04;;;;;;;5.18;4.05;;;;;;;20.74;100.00;100352.03;4486556;31;20092;-62
2022/06/04 07:36:34;;;;;;;5.28;3.65;;;;;;;21.17;100.00;100352.31;4486283;31;20123;-62
2022/06/04 07:39:06;;;;;;;4.47;3.65;;;;;;;21.34;100.00;100351.38;4486406;31;20167;-62
2022/06/04 07:41:38;;;;;;;7.00;3.53;;;;;;;21.51;100.00;100355.78;4486340;31;20523;-62
2022/06/04 07:44:07;;;;;;;5.40;3.25;;;;;;;21.92;100.00;100349.81;4486323;31;20464;-62
2022/06/04 07:46:35;;;;;;;3.50;3.20;;;;;;;22.16;100.00;100352.87;4486244;31;20113;-63
2022/06/04 07:49:05;;;;;;;7.72;2.90;;;;;;;22.43;99.96;100353.00;4486379;31;20202;-63
2022/06/04 07:51:33;;;;;;;4.25;2.97;;;;;;;22.76;96.02;100358.13;4486240;31;20166;-63
2022/06/04 07:54:01;;;;;;;5.57;3.10;;;;;;;23.00;97.77;100354.84;4486425;31;20515;-63
2022/06/04 07:56:29;;;;;;;5.65;3.22;;;;;;;23.30;93.03;100352.00;4486189;31;20495;-63
2022/06/04 07:58:57;;;;;;;2.85;2.62;;;;;;;23.24;92.21;100349.72;4486474;31;20088;-63
2022/06/04 08:01:24;;;;;;;4.37;2.78;;;;;;;23.78;92.60;100353.31;4486154;31;20075;-63
2022/06/04 08:03:53;;;;;;;5.53;3.45;;;;;;;23.97;88.39;100355.59;4486204;31;20492;-63
2022/06/04 08:06:22;;;;;;;3.12;2.70;;;;;;;24.30;85.13;100351.56;4486083;31;20442;-63
2022/06/04 08:08:54;;;;;;;4.82;3.00;;;;;;;24.56;83.45;100353.31;4486143;31;20096;-63
2022/06/04 08:11:32;;;;;;;4.30;3.05;;;;;;;24.54;84.77;100354.41;4486146;31;20129;-63
2022/06/04 08:14:04;;;;;;;5.37;3.70;;;;;;;24.12;83.93;100345.63;4486385;31;20110;-63
2022/06/04 08:16:33;;;;;;;4.95;3.65;;;;;;;24.60;84.15;100345.87;4486030;31;20092;-63
2022/06/04 08:19:00;;;;;;;3.90;3.60;;;;;;;24.11;84.02;100343.91;4485067;31;20475;-63
2022/06/04 08:21:27;;;;;;;4.20;3.17;;;;;;;24.45;86.16;100344.25;4486094;31;20091;-63
2022/06/04 08:23:55;;;;;;;4.35;2.87;;;;;;;25.02;79.93;100339.25;4485946;31;20545;-63
2022/06/04 08:26:22;;;;;;;3.53;2.90;;;;;;;25.69;77.92;100335.22;4485964;31;20096;-63
2022/06/04 08:28:50;;;;;;;3.60;3.33;;;;;;;25.62;81.15;100331.25;4471551;31;20134;-63
2022/06/04 08:31:18;;;;;;;3.65;3.33;;;;;;;24.92;76.26;100338.19;4485787;31;20507;-63
2022/06/04 08:33:46;;;;;;;3.87;3.53;;;;;;;25.03;77.06;100343.66;4485942;31;20122;-63
2022/06/04 08:36:16;;;;;;;5.35;3.45;;;;;;;24.86;82.12;100343.16;4485821;31;20592;-63
2022/06/04 08:38:43;;;;;;;3.85;2.97;;;;;;;24.59;78.22;100354.06;4486110;31;20144;-63
2022/06/04 08:41:40;;;;;;;5.65;3.25;;;;;;;24.69;79.92;100347.06;4485838;31;20159;-63
2022/06/04 08:44:50;;;;;;;3.92;3.53;;;;;;;24.85;79.58;100352.22;4462688;31;20161;-63
2022/06/04 08:47:23;;;;;;;6.68;3.00;;;;;;;24.47;78.82;100345.87;4420168;32;20152;-63
2022/06/04 08:50:21;;;;;;;3.47;3.00;;;;;;;24.96;79.74;100353.16;4420395;32;20566;-63
2022/06/04 08:52:50;;;;;;;3.12;2.85;;;;;;;25.20;78.86;100345.16;4468179;31;20084;-63
2022/06/04 08:58:38;;;;;;;3.53;3.03;;;;;;;24.32;79.83;100336.16;4485679;31;20150;-63
2022/06/04 09:01:14;;;;;;;4.28;3.10;;;;;;;24.12;80.19;100348.31;4486055;31;20175;-63
2022/06/04 09:04:02;;;;;;;5.28;3.55;;;;;;;24.10;85.00;100350.25;4485803;31;20135;-63
2022/06/04 09:06:44;;;;;;;3.55;3.25;;;;;;;23.84;83.88;100344.81;4485988;31;20103;-63
2022/06/04 09:09:20;;;;;;;4.18;3.00;;;;;;;23.82;84.04;100341.38;4485697;31;20104;-63
2022/06/04 09:12:10;;;;;;;3.03;2.60;;;;;;;23.96;83.37;100351.19;4485655;31;20740;-62
2022/06/04 09:14:51;;;;;;;3.65;3.08;;;;;;;24.14;81.05;100357.16;4485571;31;20072;-63
2022/06/04 09:17:36;;;;;;;9.23;2.97;;;;;;;24.36;81.45;100348.44;4485632;31;20428;-62
2022/06/04 09:20:32;;;;;;;4.80;3.00;;;;;;;24.26;82.11;100348.22;4485648;31;20085;-63
2022/06/04 09:23:19;;;;;;;12.80;3.87;;;;;;;24.55;80.01;100351.59;4485692;31;20130;-63
2022/06/04 09:25:58;;;;;;;2.90;2.67;;;;;;;24.62;79.70;100346.63;4485701;31;20517;-63
2022/06/04 09:29:21;;;;;;;5.12;3.20;;;;;;;24.27;81.72;100338.28;4485246;31;20099;-63
2022/06/04 09:32:45;;;;;;;8.45;3.42;;;;;;;23.50;84.29;100338.13;4460377;31;20127;-62
2022/06/04 09:35:17;;;;;;;3.65;3.15;;;;;;;23.47;87.50;100340.16;4476177;31;20096;-63
2022/06/04 09:37:47;;;;;;;8.43;2.47;;;;;;;23.62;86.54;100331.06;4485592;31;20188;-63
2022/06/04 09:40:28;;;;;;;4.50;2.15;;;;;;;23.58;83.54;100348.38;4485533;31;20080;-62
2022/06/04 09:43:24;;;;;;;2.35;1.83;;;;;;;23.47;82.16;100346.38;4485579;31;20115;-62
2022/06/04 09:46:08;;;;;;;2.00;1.80;;;;;;;24.28;77.84;100346.28;4479107;31;20088;-63
2022/06/04 09:48:42;;;;;;;4.03;2.08;;;;;;;24.73;74.54;100349.41;4485683;31;20079;-63
2022/06/04 09:51:18;;;;;;;2.53;1.37;;;;;;;24.83;76.88;100346.94;4485377;31;20160;-63
2022/06/04 09:53:49;;;;;;;4.80;1.73;;;;;;;25.35;73.42;100347.69;4485585;31;20096;-63
2022/06/04 09:56:40;;;;;;;5.50;1.50;;;;;;;25.24;74.14;100349.34;4485348;31;20471;-63
2022/06/04 09:59:29;;;;;;;3.35;1.50;;;;;;;25.13;72.53;100351.12;4485485;31;20091;-63
2022/06/04 10:01:56;;;;;;;4.32;1.48;;;;;;;25.49;70.28;100353.78;4485454;31;20083;-63
2022/06/04 10:04:44;;;;;;;3.85;1.42;;;;;;;25.28;73.41;100353.53;4485197;31;20123;-63
2022/06/04 10:07:17;;;;;;;3.72;1.37;;;;;;;25.80;71.22;100350.66;4485237;31;20166;-63
2022/06/04 10:09:57;;;;;;;3.62;1.65;;;;;;;26.04;68.70;100337.94;4485019;31;20494;-63
2022/06/04 10:15:40;;;;;;;0.82;0.80;;;;;;;25.72;64.91;100354.75;4485104;31;20084;-63
2022/06/04 10:19:04;;;;;;;3.65;1.30;;;;;;;26.50;62.92;100347.91;4484939;31;20096;-63
2022/06/04 10:21:36;;;;;;;1.83;1.17;;;;;;;25.88;64.43;100345.53;4419320;32;20767;-63
2022/06/04 10:24:23;;;;;;;3.72;1.48;;;;;;;25.40;65.55;100349.06;4419388;32;20595;-62
2022/06/04 10:27:04;;;;;;;3.83;1.10;;;;;;;26.06;64.24;100346.81;4470298;31;20123;-63
2022/06/04 10:30:01;;;;;;;1.65;1.00;;;;;;;25.77;65.48;100351.72;4470298;31;20150;-63
2022/06/04 10:32:31;;;;;;;4.12;1.20;;;;;;;25.46;65.72;100363.94;4457109;31;20439;-63
2022/06/04 10:35:49;;;;;;;4.72;1.23;;;;;;;25.92;64.08;100355.09;4484794;31;20100;-63
2022/06/04 10:38:31;;;;;;;3.78;1.17;;;;;;;25.90;61.78;100351.66;4484526;31;20087;-63
2022/06/04 10:41:26;;;;;;;6.78;1.35;;;;;;;25.86;62.34;100358.25;4485235;31;20416;-63
2022/06/04 10:44:25;;;;;;;1.33;1.00;;;;;;;26.01;62.02;100343.62;4486854;31;20167;-63
2022/06/04 10:47:20;;;;;;;4.65;1.45;;;;;;;26.58;62.44;100353.56;4486846;31;20407;-63
2022/06/04 10:50:14;;;;;;;8.63;1.87;;;;;;;26.20;64.14;100352.00;4486673;31;20115;-63
2022/06/04 10:53:06;;;;;;;2.12;1.08;;;;;;;26.27;65.56;100352.37;4486961;31;20148;-63
2022/06/04 10:55:54;;;;;;;1.52;1.17;;;;;;;26.34;63.85;100348.22;4486719;31;20072;-63
2022/06/04 10:58:28;;;;;;;2.37;1.12;;;;;;;27.26;61.46;100348.16;4486626;31;20088;-63
2022/06/04 11:01:21;;;;;;;3.87;1.23;;;;;;;27.54;57.83;100357.56;4486891;31;20150;-63
2022/06/04 11:03:52;;;;;;;1.42;1.33;;;;;;;27.66;58.65;100372.75;4478413;31;20167;-63
2022/06/04 11:06:27;;;;;;;1.35;1.25;;;;;;;26.96;62.19;100365.84;4486643;31;20080;-63
2022/06/04 11:09:10;;;;;;;1.43;1.20;;;;;;;27.05;60.58;100366.97;4486701;31;20095;-63
2022/06/04 11:11:53;;;;;;;2.10;1.30;;;;;;;27.15;59.19;100374.22;4487007;31;20163;-63
2022/06/04 11:14:35;;;;;;;1.67;1.20;;;;;;;26.60;61.96;100369.66;4486671;31;20787;-63
2022/06/04 11:17:20;;;;;;;1.83;1.10;;;;;;;26.86;59.79;100373.84;4486605;31;20139;-63
2022/06/04 11:20:00;;;;;;;2.45;1.10;;;;;;;26.62;60.53;100375.81;4486667;31;20099;-63
2022/06/04 11:22:45;;;;;;;4.75;1.25;;;;;;;26.61;59.73;100380.34;4486535;31;20119;-63
2022/06/04 11:25:30;;;;;;;2.25;1.00;;;;;;;26.78;59.14;100378.12;4486544;31;20523;-63
2022/06/04 11:28:06;;;;;;;4.37;1.45;;;;;;;28.00;56.96;100381.62;4486500;31;20084;-63
2022/06/04 11:30:50;;;;;;;3.12;1.17;;;;;;;27.73;57.53;100397.47;4486541;31;20149;-63
2022/06/04 11:33:22;;;;;;;1.35;0.80;;;;;;;29.01;53.42;100385.56;4486492;31;20177;-63
2022/06/04 11:36:07;;;;;;;3.67;0.95;;;;;;;29.91;49.05;100381.94;4486536;31;20096;-63
2022/06/04 11:39:06;;;;;;;2.47;1.08;;;;;;;29.98;48.93;100378.50;4486525;31;20087;-63
2022/06/04 11:41:36;;;;;;;1.77;1.02;;;;;;;29.78;49.86;100383.06;4486573;31;20079;-63
2022/06/04 11:44:15;;;;;;;2.00;1.33;;;;;;;30.34;49.24;100383.37;4486395;31;20142;-63
2022/06/04 11:47:04;;;;;;;1.58;1.20;;;;;;;30.28;51.56;100384.78;4486460;31;20131;-63
2022/06/04 11:49:59;;;;;;;1.27;1.02;;;;;;;32.05;46.07;100374.66;4486369;31;20554;-63
2022/06/04 11:52:43;;;;;;;1.20;1.10;;;;;;;33.75;41.65;100383.13;4486004;31;20141;-64
2022/06/04 11:55:27;;;;;;;2.20;1.30;;;;;;;34.72;39.59;100375.94;4486319;31;20161;-64
2022/06/04 11:58:08;;;;;;;1.20;1.20;;;;;;;33.14;41.05;100385.09;4486318;31;20127;-63
2022/06/04 12:00:41;;;;;;;4.03;1.50;;;;;;;31.12;45.08;100394.88;4486256;31;20076;-63
2022/06/04 12:03:26;;;;;;;1.08;1.08;;;;;;;30.53;47.61;100388.78;4486276;31;20084;-63
2022/06/04 12:05:58;;;;;;;1.37;1.17;;;;;;;32.06;44.66;100397.31;4486217;31;20403;-63
2022/06/04 12:08:30;;;;;;;3.83;1.50;;;;;;;32.07;45.08;100399.03;4486196;31;20191;-64